createdAt,value
2023-01-15T00:02:18.291Z,6.40
2023-01-15T00:04:46.438Z,6.60
2023-01-15T00:07:14.459Z,6.10
2023-01-15T00:09:42.431Z,6.60
2023-01-15T00:12:10.528Z,5.40
2023-01-15T00:14:38.510Z,4.40
2023-01-15T00:17:06.600Z,6.50
2023-01-15T00:19:34.561Z,7.40
2023-01-15T00:22:02.705Z,4.00
2023-01-15T00:24:49.362Z,6.40
2023-01-15T00:27:36.073Z,4.20
2023-01-15T00:30:05.155Z,6.10
2023-01-15T00:32:33.217Z,6.60
2023-01-15T00:35:01.505Z,5.10
2023-01-15T00:37:29.572Z,5.40
2023-01-15T00:39:57.701Z,7.00
2023-01-15T00:42:25.836Z,5.30
2023-01-15T00:44:53.967Z,6.00
2023-01-15T00:47:22.080Z,4.20
2023-01-15T00:49:51.705Z,3.80
2023-01-15T00:52:19.686Z,4.80
2023-01-15T00:54:48.447Z,3.30
2023-01-15T00:57:16.289Z,7.30
2023-01-15T00:59:44.396Z,4.90
2023-01-15T01:02:12.588Z,3.80
2023-01-15T01:04:40.630Z,4.40
2023-01-15T01:07:08.928Z,4.80
2023-01-15T01:09:36.950Z,6.90
2023-01-15T01:12:05.278Z,4.90
2023-01-15T01:14:33.253Z,4.50
2023-01-15T01:17:01.309Z,7.90
2023-01-15T01:19:29.616Z,7.10
2023-01-15T01:21:57.475Z,9.40
2023-01-15T01:24:25.641Z,4.80
2023-01-15T01:26:54.825Z,4.70
2023-01-15T01:29:23.929Z,4.40
2023-01-15T01:31:52.272Z,3.60
2023-01-15T01:34:20.257Z,3.90
2023-01-15T01:36:48.203Z,4.00
2023-01-15T01:39:19.110Z,7.10
2023-01-15T01:41:48.177Z,3.00
2023-01-15T01:44:37.575Z,5.90
2023-01-15T01:47:11.757Z,4.30
2023-01-15T01:49:40.725Z,2.90
2023-01-15T01:52:14.355Z,4.00
2023-01-15T01:54:44.611Z,3.30
2023-01-15T01:57:13.865Z,2.70
2023-01-15T01:59:41.979Z,3.60
2023-01-15T02:02:10.264Z,2.90
2023-01-15T02:04:38.549Z,2.80
2023-01-15T02:07:07.387Z,5.60
2023-01-15T02:09:35.341Z,4.60
2023-01-15T02:12:17.836Z,3.80
2023-01-15T02:15:12.387Z,2.80
2023-01-15T02:18:12.633Z,2.90
2023-01-15T02:20:47.739Z,4.40
2023-01-15T02:24:14.463Z,3.20
2023-01-15T02:27:07.719Z,2.40
2023-01-15T02:29:56.964Z,3.20
2023-01-15T02:32:39.772Z,5.10
2023-01-15T02:35:23.321Z,4.80
2023-01-15T02:37:59.358Z,4.60
2023-01-15T02:40:28.655Z,3.60
2023-01-15T02:42:57.668Z,3.60
2023-01-15T02:45:35.654Z,2.20
2023-01-15T02:48:12.966Z,2.30
2023-01-15T02:50:46.569Z,3.10
2023-01-15T02:53:28.352Z,3.10
2023-01-15T02:56:05.572Z,3.80
2023-01-15T02:58:38.196Z,2.30
2023-01-15T03:03:57.114Z,3.30
2023-01-15T03:06:43.623Z,4.50
2023-01-15T03:09:12.345Z,2.20
2023-01-15T03:12:04.962Z,3.60
2023-01-15T03:14:43.170Z,3.30
2023-01-15T03:17:22.993Z,2.50
2023-01-15T03:19:58.878Z,2.50
2023-01-15T03:22:32.234Z,2.30
2023-01-15T03:25:19.836Z,1.70
2023-01-15T03:27:48.011Z,4.00
2023-01-15T03:30:19.960Z,5.00
2023-01-15T03:32:48.797Z,3.30
2023-01-15T03:35:52.790Z,3.60
2023-01-15T03:38:35.612Z,6.80
2023-01-15T03:41:26.056Z,2.70
2023-01-15T03:44:15.931Z,4.90
2023-01-15T03:47:24.587Z,3.70
2023-01-15T03:50:12.884Z,3.10
2023-01-15T03:53:10.587Z,3.60
2023-01-15T03:55:54.333Z,2.90
2023-01-15T03:58:48.515Z,3.70
2023-01-15T04:01:20.521Z,4.20
2023-01-15T04:03:50.200Z,5.10
2023-01-15T04:06:18.963Z,2.60
2023-01-15T04:08:47.587Z,4.30
2023-01-15T04:11:24.679Z,3.40
2023-01-15T04:13:53.706Z,2.70
2023-01-15T04:16:28.035Z,6.20
2023-01-15T04:18:56.397Z,4.30
2023-01-15T04:21:24.754Z,6.10
2023-01-15T04:23:53.024Z,4.50
2023-01-15T04:26:21.220Z,5.70
2023-01-15T04:28:49.369Z,3.10
2023-01-15T04:31:17.633Z,2.80
2023-01-15T04:33:45.628Z,5.40
2023-01-15T04:36:15.154Z,4.20
2023-01-15T04:38:43.204Z,3.10
2023-01-15T04:41:29.792Z,3.30
2023-01-15T04:44:06.974Z,4.20
2023-01-15T04:46:44.647Z,3.80
2023-01-15T04:49:16.732Z,2.70
2023-01-15T04:51:45.043Z,5.70
2023-01-15T04:54:16.622Z,2.70
2023-01-15T04:56:48.137Z,8.10
2023-01-15T04:59:19.379Z,3.50
2023-01-15T05:02:02.470Z,3.20
2023-01-15T05:04:32.754Z,2.30
2023-01-15T05:07:04.056Z,2.80
2023-01-15T05:09:32.345Z,4.30
2023-01-15T05:12:00.525Z,3.20
2023-01-15T05:14:28.944Z,2.00
2023-01-15T05:16:57.075Z,3.80
2023-01-15T05:19:25.354Z,3.20
2023-01-15T05:21:53.604Z,2.70
2023-01-15T05:24:21.799Z,4.40
2023-01-15T05:26:49.846Z,2.30
2023-01-15T05:29:18.109Z,2.20
2023-01-15T05:31:46.774Z,2.40
2023-01-15T05:34:15.045Z,3.20
2023-01-15T05:36:43.169Z,4.60
2023-01-15T05:39:11.350Z,4.50
2023-01-15T05:41:51.659Z,4.20
2023-01-15T05:44:28.557Z,3.70
2023-01-15T05:47:00.248Z,2.90
2023-01-15T05:49:31.316Z,6.60
2023-01-15T05:52:00.980Z,2.60
2023-01-15T05:54:33.140Z,3.40
2023-01-15T05:57:02.092Z,2.50
2023-01-15T05:59:31.764Z,3.80
2023-01-15T06:02:00.325Z,2.80
2023-01-15T06:04:28.390Z,3.30
2023-01-15T06:06:57.584Z,2.30
2023-01-15T06:09:28.288Z,3.60
2023-01-15T06:11:58.094Z,3.00
2023-01-15T06:14:28.690Z,3.50
2023-01-15T06:16:56.734Z,3.60
2023-01-15T06:19:24.756Z,2.10
2023-01-15T06:21:53.223Z,3.10
2023-01-15T06:24:21.397Z,2.60
2023-01-15T06:26:49.505Z,3.30
2023-01-15T06:29:19.192Z,2.30
2023-01-15T06:31:48.359Z,2.50
2023-01-15T06:34:18.494Z,3.60
2023-01-15T06:36:46.884Z,5.00
2023-01-15T06:39:15.046Z,4.70
2023-01-15T06:42:01.761Z,2.60
2023-01-15T06:44:48.491Z,3.60
2023-01-15T06:47:22.212Z,3.00
2023-01-15T06:49:58.312Z,3.20
2023-01-15T06:52:28.954Z,3.70
2023-01-15T06:54:57.185Z,3.30
2023-01-15T06:57:25.226Z,5.30
2023-01-15T06:59:54.552Z,3.20
2023-01-15T07:02:22.614Z,4.00
2023-01-15T07:04:52.135Z,4.80
2023-01-15T07:07:21.520Z,4.20
2023-01-15T07:09:50.957Z,6.00
2023-01-15T07:12:19.113Z,4.60
2023-01-15T07:17:29.765Z,9.90
2023-01-15T07:20:00.518Z,4.00
2023-01-15T07:22:28.770Z,5.90
2023-01-15T07:24:57.278Z,3.90
2023-01-15T07:27:25.410Z,3.30
2023-01-15T07:29:55.317Z,4.40
2023-01-15T07:32:42.738Z,2.90
2023-01-15T07:35:11.081Z,3.00
2023-01-15T07:37:40.480Z,3.40
2023-01-15T07:40:12.766Z,4.60
2023-01-15T07:42:59.510Z,2.90
2023-01-15T07:45:57.106Z,3.90
2023-01-15T07:48:44.664Z,2.90
2023-01-15T07:51:12.694Z,5.40
2023-01-15T07:53:40.733Z,2.50
2023-01-15T07:56:08.837Z,3.30
2023-01-15T07:58:39.238Z,2.40
2023-01-15T08:01:07.470Z,2.70
2023-01-15T08:03:35.490Z,2.20
2023-01-15T08:06:03.660Z,1.90
2023-01-15T08:08:31.567Z,2.20
2023-01-15T08:11:21.811Z,2.20
2023-01-15T08:14:08.360Z,2.30
2023-01-15T08:16:37.268Z,4.20
2023-01-15T08:19:05.383Z,4.90
2023-01-15T08:21:33.332Z,4.30
2023-01-15T08:24:04.553Z,3.30
2023-01-15T08:26:32.821Z,4.30
2023-01-15T08:29:01.624Z,3.70
2023-01-15T08:31:32.961Z,3.50
2023-01-15T08:34:01.328Z,3.00
2023-01-15T08:36:29.472Z,2.60
2023-01-15T08:38:57.853Z,4.80
2023-01-15T08:41:26.070Z,4.10
2023-01-15T08:43:54.136Z,3.70
2023-01-15T08:46:22.138Z,4.50
2023-01-15T08:48:50.248Z,4.00
2023-01-15T08:51:19.477Z,3.50
2023-01-15T08:53:47.960Z,5.60
2023-01-15T08:56:19.416Z,5.10
2023-01-15T08:58:48.869Z,3.10
2023-01-15T09:01:17.142Z,5.80
2023-01-15T09:03:45.317Z,3.50
2023-01-15T09:06:13.833Z,4.90
2023-01-15T09:08:45.472Z,2.80
2023-01-15T09:11:14.127Z,2.90
2023-01-15T09:13:44.320Z,3.70
2023-01-15T09:16:12.949Z,3.00
2023-01-15T09:18:42.775Z,3.40
2023-01-15T09:21:14.672Z,4.20
2023-01-15T09:23:44.897Z,4.90
2023-01-15T09:26:36.930Z,6.10
2023-01-15T09:29:07.575Z,3.60
2023-01-15T09:31:36.116Z,4.60
2023-01-15T09:34:06.138Z,4.40
2023-01-15T09:36:35.947Z,4.40
2023-01-15T09:39:04.973Z,4.00
2023-01-15T09:42:00.898Z,2.40
2023-01-15T09:44:50.218Z,3.70
2023-01-15T09:47:37.835Z,2.50
2023-01-15T09:50:20.426Z,2.20
2023-01-15T09:53:07.581Z,1.00
2023-01-15T09:55:45.916Z,1.50
2023-01-15T09:58:18.274Z,1.30
2023-01-15T10:00:50.788Z,1.80
2023-01-15T10:03:52.982Z,1.00
2023-01-15T10:06:40.957Z,1.50
2023-01-15T10:09:21.939Z,1.80
2023-01-15T10:12:18.965Z,2.60
2023-01-15T10:15:01.601Z,2.00
2023-01-15T10:17:42.783Z,5.60
2023-01-15T10:20:28.557Z,4.50
2023-01-15T10:23:54.960Z,1.90
2023-01-15T10:26:41.716Z,2.10
2023-01-15T10:29:38.602Z,1.40
2023-01-15T10:32:33.186Z,2.90
2023-01-15T10:36:01.619Z,4.40
2023-01-15T10:38:51.498Z,4.70
2023-01-15T10:42:17.128Z,3.80
2023-01-15T10:45:44.008Z,3.00
2023-01-15T10:52:16.980Z,5.30
2023-01-15T11:02:48.408Z,3.30
2023-01-15T11:10:41.865Z,3.80
2023-01-15T11:14:24.418Z,3.10
2023-01-15T11:17:42.580Z,4.70
2023-01-15T11:20:55.130Z,5.20
2023-01-15T11:27:18.834Z,8.00
2023-01-15T11:30:05.951Z,11.20
2023-01-15T11:33:20.799Z,6.50
2023-01-15T11:36:37.080Z,7.10
2023-01-15T11:39:33.001Z,4.60
2023-01-15T11:42:33.376Z,3.40
2023-01-15T11:45:40.104Z,2.80
2023-01-15T11:48:52.196Z,4.00
2023-01-15T11:51:59.553Z,5.80
2023-01-15T11:55:00.132Z,5.80
2023-01-15T11:58:42.693Z,5.40
2023-01-15T12:02:01.362Z,5.50
2023-01-15T12:08:21.700Z,5.50
2023-01-15T12:12:17.285Z,3.30
2023-01-15T12:15:41.822Z,7.30
2023-01-15T12:19:11.490Z,5.80
2023-01-15T12:22:15.625Z,4.20
2023-01-15T12:28:36.949Z,2.80
2023-01-15T12:33:55.485Z,5.20
2023-01-15T12:38:18.142Z,6.70
2023-01-15T12:50:48.677Z,4.70
2023-01-15T12:55:18.012Z,5.90
2023-01-15T12:58:02.554Z,3.30
2023-01-15T13:02:38.081Z,3.10
2023-01-15T15:19:56.561Z,14.10
2023-01-15T15:22:29.349Z,13.00
2023-01-15T15:24:59.359Z,12.80
2023-01-15T15:27:31.779Z,11.20
2023-01-15T15:30:12.012Z,11.10
2023-01-15T15:32:42.662Z,9.70
2023-01-15T15:35:35.659Z,12.30
2023-01-15T15:38:06.913Z,11.50
2023-01-15T15:41:12.897Z,11.70
2023-01-15T15:44:15.295Z,12.10
2023-01-15T15:47:09.096Z,13.60
2023-01-15T15:49:42.455Z,13.70
2023-01-15T15:52:23.513Z,12.70
2023-01-15T15:55:05.666Z,12.30
2023-01-15T15:57:34.966Z,11.30
2023-01-15T16:00:03.551Z,10.60
2023-01-15T16:02:48.861Z,9.70
2023-01-15T16:05:30.165Z,9.40
2023-01-15T16:08:20.546Z,11.90
2023-01-15T16:10:53.389Z,8.50
2023-01-15T16:13:35.451Z,12.80
2023-01-15T16:16:04.536Z,7.80
2023-01-15T16:18:49.037Z,14.70
2023-01-15T16:21:36.217Z,12.40
2023-01-15T16:24:18.376Z,8.20
2023-01-15T16:27:01.242Z,9.40
2023-01-15T16:29:34.850Z,11.70
2023-01-15T16:32:11.292Z,11.20
2023-01-15T16:34:39.361Z,11.90
2023-01-15T16:37:31.282Z,14.10
2023-01-15T16:40:06.401Z,11.50
2023-01-15T16:42:38.348Z,11.40
2023-01-15T16:45:35.044Z,10.80
2023-01-15T16:48:20.790Z,11.70
2023-01-15T16:50:50.281Z,12.00
2023-01-15T16:53:55.931Z,10.30
2023-01-15T16:56:38.812Z,10.60
2023-01-15T16:59:45.601Z,9.30
2023-01-15T17:02:21.615Z,9.40
2023-01-15T17:04:55.917Z,7.60
2023-01-15T17:07:28.534Z,7.70
2023-01-15T17:10:02.121Z,7.90
2023-01-15T17:12:34.517Z,8.00
2023-01-15T17:15:17.842Z,12.90
2023-01-15T17:17:57.012Z,8.10
2023-01-15T17:20:29.044Z,8.00
2023-01-15T17:23:40.950Z,10.10
2023-01-15T17:26:47.385Z,9.80
2023-01-15T17:30:05.422Z,10.50
2023-01-15T17:33:09.543Z,8.60
2023-01-15T17:36:04.944Z,8.90
2023-01-15T17:38:58.626Z,11.10
2023-01-15T17:41:44.314Z,11.80
2023-01-15T17:44:16.019Z,8.20
2023-01-15T17:46:56.850Z,8.10
2023-01-15T17:49:46.704Z,9.40
2023-01-15T17:52:19.279Z,10.70
2023-01-15T17:55:05.088Z,10.70
2023-01-15T17:57:51.473Z,8.50
2023-01-15T18:00:38.068Z,8.00
2023-01-15T18:03:35.883Z,9.10
2023-01-15T18:06:03.418Z,9.00
2023-01-15T18:08:31.140Z,6.90
2023-01-15T18:11:02.904Z,10.00
2023-01-15T18:13:34.463Z,9.70
2023-01-15T18:16:02.138Z,9.00
2023-01-15T18:18:28.983Z,9.00
2023-01-15T18:20:55.779Z,7.60
2023-01-15T18:23:22.631Z,8.30
2023-01-15T18:25:50.635Z,7.90
2023-01-15T18:28:17.674Z,9.10
2023-01-15T18:30:44.445Z,8.90
2023-01-15T18:33:11.364Z,7.60
2023-01-15T18:35:38.487Z,9.60
2023-01-15T18:38:06.260Z,7.80
2023-01-15T18:40:35.524Z,7.70
2023-01-15T18:43:21.178Z,9.70
2023-01-15T18:46:27.074Z,7.00
2023-01-15T18:48:57.345Z,8.20
2023-01-15T18:51:25.715Z,18.10
2023-01-15T18:53:53.783Z,6.30
2023-01-15T18:56:40.490Z,10.10
2023-01-15T18:59:11.550Z,7.60
2023-01-15T19:01:42.977Z,11.40
2023-01-15T19:04:12.905Z,8.80
2023-01-15T19:06:56.746Z,8.10
2023-01-15T19:09:24.851Z,8.80
2023-01-15T19:11:56.349Z,7.70
2023-01-15T19:14:44.963Z,8.70
2023-01-15T19:17:40.733Z,4.80
2023-01-15T19:20:15.217Z,5.30
2023-01-15T19:22:59.792Z,8.20
2023-01-15T19:25:45.216Z,8.20
2023-01-15T19:28:17.682Z,7.00
2023-01-15T19:31:07.103Z,8.10
2023-01-15T19:33:40.157Z,8.50
2023-01-15T19:36:10.806Z,6.90
2023-01-15T19:38:41.896Z,10.90
2023-01-15T19:41:31.353Z,7.10
2023-01-15T19:44:18.546Z,7.90
2023-01-15T19:47:22.327Z,7.70
2023-01-15T19:50:09.852Z,9.90
2023-01-15T19:52:41.281Z,8.80
2023-01-15T19:55:19.233Z,8.50
2023-01-15T19:57:57.436Z,7.70
2023-01-15T20:00:27.703Z,9.60
2023-01-15T20:02:59.978Z,9.60
2023-01-15T20:05:32.568Z,7.90
2023-01-15T20:08:05.287Z,8.10
2023-01-15T20:10:35.056Z,9.20
2023-01-15T20:13:23.406Z,7.60
2023-01-15T20:15:57.919Z,8.00
2023-01-15T20:18:28.598Z,6.50
2023-01-15T20:20:57.911Z,6.30
2023-01-15T20:23:34.784Z,6.50
2023-01-15T20:26:11.411Z,6.30
2023-01-15T20:28:59.121Z,16.70
2023-01-15T20:31:34.232Z,5.80
2023-01-15T20:34:03.622Z,8.10
2023-01-15T20:36:36.071Z,8.80
2023-01-15T20:39:04.972Z,7.70
2023-01-15T20:41:52.506Z,10.00
2023-01-15T20:44:46.386Z,8.30
2023-01-15T20:47:34.010Z,8.00
2023-01-15T20:50:10.077Z,6.90
2023-01-15T20:52:42.129Z,6.40
2023-01-15T20:55:13.598Z,9.00
2023-01-15T20:57:47.623Z,8.10
2023-01-15T21:00:21.412Z,7.50
2023-01-15T21:02:50.692Z,8.10
2023-01-15T21:05:20.759Z,13.20
2023-01-15T21:07:51.186Z,9.50
2023-01-15T21:10:23.214Z,7.60
2023-01-15T21:12:54.031Z,6.50
2023-01-15T21:15:37.185Z,6.70
2023-01-15T21:18:08.745Z,6.00
2023-01-15T21:20:40.157Z,6.90
2023-01-15T21:23:09.372Z,7.20
2023-01-15T21:25:47.643Z,6.20
2023-01-15T21:28:16.498Z,7.00
2023-01-15T21:30:45.275Z,5.40
2023-01-15T21:33:15.318Z,6.00
2023-01-15T21:35:44.283Z,5.40
2023-01-15T21:38:15.121Z,6.30
2023-01-15T21:40:43.698Z,5.00
2023-01-15T21:43:30.476Z,7.20
2023-01-15T21:46:06.905Z,4.70
2023-01-15T21:48:38.944Z,4.70
2023-01-15T21:51:07.640Z,4.80
2023-01-15T21:53:36.238Z,5.70
2023-01-15T21:56:09.706Z,7.40
2023-01-15T21:58:42.697Z,6.40
2023-01-15T22:01:15.153Z,3.90
2023-01-15T22:04:26.998Z,8.10
2023-01-15T22:07:00.976Z,4.80
2023-01-15T22:09:58.743Z,5.10
2023-01-15T22:12:47.498Z,4.20
2023-01-15T22:15:30.655Z,5.90
2023-01-15T22:18:01.096Z,5.50
2023-01-15T22:20:29.453Z,5.50
2023-01-15T22:22:57.618Z,5.70
2023-01-15T22:25:25.898Z,6.90
2023-01-15T22:27:54.264Z,5.50
2023-01-15T22:30:22.466Z,6.00
2023-01-15T22:32:51.562Z,5.00
2023-01-15T22:35:20.554Z,5.10
2023-01-15T22:37:48.809Z,5.80
2023-01-15T22:40:22.949Z,6.50
2023-01-15T22:42:51.505Z,7.10
2023-01-15T22:45:20.831Z,8.20
2023-01-15T22:47:49.636Z,7.10
2023-01-15T22:50:18.162Z,6.60
2023-01-15T22:52:47.474Z,7.20
2023-01-15T22:55:18.840Z,5.80
2023-01-15T22:57:47.944Z,6.20
2023-01-15T23:00:17.008Z,5.20
2023-01-15T23:03:05.005Z,5.00
2023-01-15T23:05:40.202Z,5.30
2023-01-15T23:08:08.564Z,5.50
2023-01-15T23:10:37.700Z,7.70
2023-01-15T23:13:13.443Z,5.90
2023-01-15T23:15:42.220Z,5.20
2023-01-15T23:18:16.944Z,5.30
2023-01-15T23:20:51.546Z,6.50
2023-01-15T23:23:21.514Z,5.40
2023-01-15T23:25:50.292Z,8.80
2023-01-15T23:28:23.074Z,5.70
2023-01-15T23:30:55.604Z,5.80
2023-01-15T23:35:53.313Z,5.90
2023-01-15T23:38:23.888Z,4.40
2023-01-15T23:40:53.722Z,6.00
2023-01-15T23:43:40.390Z,6.30
2023-01-15T23:46:33.682Z,6.10
2023-01-15T23:49:10.944Z,4.60
2023-01-15T23:51:39.288Z,5.50
2023-01-15T23:54:08.752Z,8.50
2023-01-15T23:56:37.180Z,5.00
2023-01-15T23:59:05.560Z,8.90
